Time;durP1;ratioP1;P1;durP2;ratioP2;P2;SDS_P1;SDS_P2;PMS_P1;PMS_P2;Temp;Humidity;BMP_temperature;BMP_pressure;BME280_temperature;BME280_humidity;BME280_pressure;Samples;Min_cycle;Max_cycle;Signal;HPM_P1;HPM_P2
2021/03/19 00:01:17;;;;;;;0.03;0.03;;;5.10;99.90;;;;;;5019687;28;20181;-81
2021/03/19 00:03:42;;;;;;;0.13;0.13;;;5.10;99.90;;;;;;5024241;28;20233;-82
2021/03/19 00:06:08;;;;;;;0.20;0.20;;;5.10;99.90;;;;;;5028416;28;20685;-81
2021/03/19 00:08:34;;;;;;;0.07;0.07;;;5.10;99.90;;;;;;5017565;28;20576;-81
2021/03/19 00:10:59;;;;;;;0.00;0.00;;;5.10;99.90;;;;;;5023133;28;20221;-81
2021/03/19 00:13:25;;;;;;;0.13;0.13;;;5.10;99.90;;;;;;5031040;28;20198;-81
2021/03/19 00:15:51;;;;;;;0.00;0.00;;;5.10;99.90;;;;;;5034887;28;20194;-81
2021/03/19 00:18:17;;;;;;;0.10;0.10;;;5.20;99.90;;;;;;5025705;28;20306;-81
2021/03/19 00:20:45;;;;;;;0.10;0.10;;;5.20;99.90;;;;;;5026224;28;20224;-81
2021/03/19 00:23:11;;;;;;;0.20;0.10;;;5.30;99.90;;;;;;5025586;28;20562;-82
2021/03/19 00:25:37;;;;;;;0.13;0.13;;;5.30;99.90;;;;;;5014721;28;20193;-81
2021/03/19 00:28:04;;;;;;;0.10;0.10;;;5.40;99.90;;;;;;5017093;28;20244;-80
2021/03/19 00:30:30;;;;;;;0.20;0.20;;;5.30;99.90;;;;;;5014258;28;20205;-81
2021/03/19 00:32:56;;;;;;;0.10;0.10;;;5.30;99.90;;;;;;5019993;28;20248;-81
2021/03/19 00:35:22;;;;;;;0.13;0.13;;;5.30;99.90;;;;;;5021143;28;20190;-81
2021/03/19 00:37:48;;;;;;;0.30;0.30;;;5.20;99.90;;;;;;5013852;28;20191;-81
2021/03/19 00:40:15;;;;;;;0.10;0.10;;;5.20;99.90;;;;;;5025590;28;20237;-82
2021/03/19 00:42:42;;;;;;;1.33;0.33;;;5.10;99.90;;;;;;5020761;28;20186;-81
2021/03/19 00:45:10;;;;;;;0.20;0.20;;;5.10;99.90;;;;;;5026204;28;20213;-82
2021/03/19 00:47:36;;;;;;;0.20;0.20;;;5.10;99.90;;;;;;5020897;28;20277;-80
2021/03/19 00:50:04;;;;;;;0.03;0.03;;;5.00;99.90;;;;;;5029265;28;20644;-80
2021/03/19 00:52:30;;;;;;;0.63;0.63;;;5.00;99.90;;;;;;5025245;28;20197;-81
2021/03/19 00:54:56;;;;;;;0.20;0.20;;;5.00;99.90;;;;;;5024668;28;20202;-81
2021/03/19 00:57:21;;;;;;;0.10;0.10;;;4.90;99.90;;;;;;5018400;28;20201;-81
2021/03/19 00:59:47;;;;;;;0.60;0.60;;;4.90;99.90;;;;;;5021099;28;20261;-81
2021/03/19 01:02:12;;;;;;;0.20;0.20;;;4.90;99.90;;;;;;5015649;28;20181;-80
2021/03/19 01:04:38;;;;;;;0.97;0.87;;;4.90;99.90;;;;;;5029171;28;20239;-84
2021/03/19 01:07:03;;;;;;;0.00;0.00;;;5.00;99.90;;;;;;5024434;28;20194;-81
2021/03/19 01:09:29;;;;;;;0.10;0.10;;;4.90;99.90;;;;;;5015888;28;20209;-81
2021/03/19 01:11:54;;;;;;;0.10;0.10;;;5.00;99.90;;;;;;5032043;28;20297;-81
2021/03/19 01:14:20;;;;;;;0.80;0.20;;;5.00;99.90;;;;;;5020055;28;20255;-80
2021/03/19 01:16:46;;;;;;;0.20;0.20;;;4.90;99.90;;;;;;5024484;28;20218;-81
2021/03/19 01:19:12;;;;;;;0.20;0.20;;;4.90;99.90;;;;;;5017617;28;20229;-81
2021/03/19 01:21:38;;;;;;;0.53;0.53;;;4.90;99.90;;;;;;5030560;28;20181;-81
2021/03/19 01:24:04;;;;;;;0.10;0.10;;;4.80;99.90;;;;;;5016537;28;20182;-81
2021/03/19 01:26:29;;;;;;;0.20;0.20;;;4.80;99.90;;;;;;5014691;28;20708;-81
2021/03/19 01:28:55;;;;;;;0.40;0.40;;;4.80;99.90;;;;;;5014425;28;20290;-81
2021/03/19 01:31:21;;;;;;;0.63;0.47;;;5.00;99.90;;;;;;5018338;28;20216;-83
2021/03/19 01:33:46;;;;;;;0.03;0.03;;;5.00;99.90;;;;;;5028059;28;20217;-81
2021/03/19 01:36:12;;;;;;;0.57;0.30;;;5.10;99.90;;;;;;5018452;28;20189;-81
2021/03/19 01:38:39;;;;;;;0.87;0.20;;;5.10;99.90;;;;;;5017701;28;20222;-81
2021/03/19 01:41:06;;;;;;;0.13;0.13;;;4.60;99.90;;;;;;5023832;28;20270;-81
2021/03/19 01:43:37;;;;;;;0.73;0.33;;;4.10;99.90;;;;;;5028231;28;20244;-82
2021/03/19 01:46:40;;;;;;;0.40;0.40;;;3.80;99.90;;;;;;5022242;28;20213;-80
2021/03/19 01:49:43;;;;;;;0.53;0.53;;;3.40;99.90;;;;;;5014109;28;20230;-81
2021/03/19 01:52:46;;;;;;;0.27;0.27;;;3.10;99.90;;;;;;5019603;28;20607;-81
2021/03/19 01:55:49;;;;;;;0.17;0.13;;;2.90;99.90;;;;;;5040934;28;20587;-81
2021/03/19 01:58:52;;;;;;;1.60;0.43;;;2.70;99.90;;;;;;5022051;28;20218;-81
2021/03/19 02:01:56;;;;;;;0.00;0.00;;;2.50;99.90;;;;;;5026636;28;20194;-81
2021/03/19 02:05:15;;;;;;;0.10;0.10;;;2.30;99.90;;;;;;5035149;28;20183;-81
2021/03/19 02:08:18;;;;;;;0.00;0.00;;;2.30;99.90;;;;;;4921411;29;20218;-81
2021/03/19 02:11:21;;;;;;;0.03;0.03;;;2.20;99.90;;;;;;5027347;28;20232;-81
2021/03/19 02:14:25;;;;;;;0.10;0.10;;;2.40;99.90;;;;;;5016375;28;20705;-81
2021/03/19 02:17:28;;;;;;;0.00;0.00;;;2.60;99.90;;;;;;5022142;28;20201;-81
2021/03/19 02:20:31;;;;;;;0.00;0.00;;;2.80;99.90;;;;;;5022065;28;20253;-81
2021/03/19 02:23:34;;;;;;;0.10;0.10;;;3.00;99.90;;;;;;5030938;28;20666;-81
2021/03/19 02:26:37;;;;;;;0.00;0.00;;;3.10;99.90;;;;;;5015967;28;20182;-81
2021/03/19 02:29:40;;;;;;;0.20;0.20;;;3.30;99.90;;;;;;5021765;28;20702;-81
2021/03/19 02:32:18;;;;;;;0.10;0.10;;;2.90;99.90;;;;;;5014175;28;20196;-82
2021/03/19 02:34:54;;;;;;;0.00;0.00;;;2.80;99.90;;;;;;5024171;28;20187;-81
2021/03/19 02:37:26;;;;;;;0.10;0.10;;;2.80;99.90;;;;;;5017788;28;20709;-82
2021/03/19 02:39:52;;;;;;;0.00;0.00;;;3.00;99.90;;;;;;5017451;28;20218;-82
2021/03/19 02:42:21;;;;;;;0.10;0.10;;;3.20;99.90;;;;;;5026908;28;20183;-81
2021/03/19 02:44:47;;;;;;;0.10;0.10;;;3.40;99.90;;;;;;5022120;28;20338;-81
2021/03/19 02:47:13;;;;;;;0.07;0.07;;;3.40;99.90;;;;;;5015592;28;20655;-81
2021/03/19 02:49:39;;;;;;;0.20;0.20;;;3.50;99.90;;;;;;5014211;28;20258;-80
2021/03/19 02:52:05;;;;;;;0.20;0.20;;;3.60;99.90;;;;;;5018490;28;20190;-82
2021/03/19 02:54:31;;;;;;;0.00;0.00;;;3.40;99.90;;;;;;5024328;28;20195;-81
2021/03/19 02:56:57;;;;;;;0.10;0.10;;;3.50;99.90;;;;;;5025719;28;20185;-81
2021/03/19 02:59:22;;;;;;;0.00;0.00;;;3.40;99.90;;;;;;5015097;28;20253;-81
2021/03/19 03:01:48;;;;;;;0.10;0.10;;;3.50;99.90;;;;;;5021696;28;20192;-81
2021/03/19 03:04:14;;;;;;;0.20;0.20;;;3.30;99.90;;;;;;5032475;28;20246;-80
2021/03/19 03:06:49;;;;;;;0.00;0.00;;;3.20;99.90;;;;;;5018241;28;20679;-80
2021/03/19 03:09:20;;;;;;;0.10;0.10;;;3.20;99.90;;;;;;5016514;28;20215;-81
2021/03/19 03:11:46;;;;;;;0.10;0.10;;;3.00;99.90;;;;;;5022330;28;20676;-81
2021/03/19 03:14:17;;;;;;;0.10;0.10;;;3.00;99.90;;;;;;5011954;28;20220;-81
2021/03/19 03:16:43;;;;;;;0.10;0.10;;;3.10;99.90;;;;;;5022863;28;20195;-81
2021/03/19 03:19:13;;;;;;;0.17;0.17;;;3.20;99.90;;;;;;5021035;28;20231;-81
2021/03/19 03:21:40;;;;;;;0.27;0.27;;;3.20;99.90;;;;;;5031187;28;20790;-82
2021/03/19 03:24:06;;;;;;;0.10;0.10;;;3.20;99.90;;;;;;5025416;28;20194;-81
2021/03/19 03:26:32;;;;;;;0.10;0.10;;;3.00;99.90;;;;;;5026145;28;20184;-80
2021/03/19 03:28:58;;;;;;;0.30;0.30;;;2.90;99.90;;;;;;5029668;28;20211;-81
2021/03/19 03:31:25;;;;;;;0.10;0.10;;;2.90;99.90;;;;;;5037598;28;20195;-80
2021/03/19 03:33:50;;;;;;;0.43;0.43;;;2.80;99.90;;;;;;5017004;28;20190;-81
2021/03/19 03:36:17;;;;;;;0.00;0.00;;;2.60;99.90;;;;;;5018279;28;20682;-81
2021/03/19 03:38:42;;;;;;;0.10;0.10;;;2.50;99.90;;;;;;5012499;28;20208;-81
2021/03/19 03:41:21;;;;;;;0.10;0.10;;;2.50;99.90;;;;;;5021491;28;20188;-81
2021/03/19 03:43:47;;;;;;;0.03;0.03;;;2.60;99.90;;;;;;5025905;28;20660;-81
2021/03/19 03:46:17;;;;;;;0.00;0.00;;;2.60;99.90;;;;;;5028119;28;20280;-81
2021/03/19 03:48:43;;;;;;;0.50;0.20;;;2.70;99.90;;;;;;5024821;28;20671;-81
2021/03/19 03:51:10;;;;;;;0.10;0.10;;;2.80;99.90;;;;;;5029791;28;20197;-82
2021/03/19 03:53:37;;;;;;;0.00;0.00;;;2.90;99.90;;;;;;5027108;28;20195;-80
2021/03/19 03:56:05;;;;;;;0.10;0.10;;;2.70;99.90;;;;;;5035684;28;20201;-81
2021/03/19 03:58:31;;;;;;;0.50;0.40;;;2.50;99.90;;;;;;5029866;28;20238;-81
2021/03/19 04:00:57;;;;;;;1.70;0.40;;;2.20;99.90;;;;;;5024316;28;20263;-81
2021/03/19 04:03:23;;;;;;;0.10;0.10;;;2.10;99.90;;;;;;5036028;28;20185;-82
2021/03/19 04:05:49;;;;;;;0.10;0.10;;;2.00;99.90;;;;;;5031504;28;20773;-81
2021/03/19 04:08:22;;;;;;;0.50;0.50;;;2.00;99.90;;;;;;5026702;28;20207;-81
2021/03/19 04:10:49;;;;;;;0.30;0.30;;;1.90;99.90;;;;;;5031293;28;20182;-81
2021/03/19 04:13:16;;;;;;;1.53;0.50;;;1.90;99.90;;;;;;5020237;28;20187;-81
2021/03/19 04:15:42;;;;;;;2.23;0.60;;;1.90;99.90;;;;;;5024300;28;20241;-81
2021/03/19 04:18:13;;;;;;;0.63;0.30;;;1.90;99.90;;;;;;5030251;28;20202;-82
2021/03/19 04:20:41;;;;;;;1.00;0.30;;;1.90;99.90;;;;;;5028924;28;20246;-82
2021/03/19 04:23:07;;;;;;;0.10;0.10;;;1.90;99.90;;;;;;5023832;28;20184;-81
2021/03/19 04:25:33;;;;;;;0.50;0.50;;;2.00;99.90;;;;;;5018914;28;20198;-81
2021/03/19 04:28:02;;;;;;;0.27;0.27;;;2.00;99.90;;;;;;5032808;28;20207;-81
2021/03/19 04:30:40;;;;;;;0.20;0.20;;;2.10;99.90;;;;;;5023975;28;20214;-81
2021/03/19 04:33:08;;;;;;;0.10;0.10;;;2.10;99.90;;;;;;5036857;28;20200;-81
2021/03/19 04:35:34;;;;;;;2.13;0.67;;;2.10;99.90;;;;;;5022503;28;20686;-81
2021/03/19 04:38:04;;;;;;;0.23;0.23;;;2.10;99.90;;;;;;5028373;28;20247;-81
2021/03/19 04:40:31;;;;;;;0.80;0.80;;;2.10;99.90;;;;;;5024957;28;20217;-81
2021/03/19 04:42:58;;;;;;;0.20;0.20;;;2.10;99.90;;;;;;5028541;28;20183;-80
2021/03/19 04:45:24;;;;;;;0.60;0.47;;;2.10;99.90;;;;;;5046506;28;20182;-81
2021/03/19 04:47:52;;;;;;;0.50;0.50;;;2.10;99.90;;;;;;5027341;28;20236;-81
2021/03/19 04:50:19;;;;;;;1.67;0.57;;;2.10;99.90;;;;;;5018286;28;20199;-81
2021/03/19 04:52:45;;;;;;;1.50;0.80;;;2.10;99.90;;;;;;5027075;28;20224;-80
2021/03/19 04:55:11;;;;;;;1.17;0.80;;;2.20;99.90;;;;;;5031060;28;20190;-84
2021/03/19 04:57:37;;;;;;;2.77;0.43;;;2.10;99.90;;;;;;5024510;28;20778;-81
2021/03/19 05:00:08;;;;;;;1.43;1.33;;;2.20;99.90;;;;;;5031778;28;20203;-80
2021/03/19 05:02:43;;;;;;;0.60;0.60;;;2.30;99.90;;;;;;5015186;28;20210;-81
2021/03/19 05:05:20;;;;;;;0.57;0.57;;;2.30;99.90;;;;;;5018310;28;20824;-81
2021/03/19 05:07:45;;;;;;;0.20;0.20;;;2.30;99.90;;;;;;5021370;28;20195;-81
2021/03/19 05:10:13;;;;;;;0.20;0.20;;;2.30;99.90;;;;;;5028554;28;20201;-81
2021/03/19 05:12:39;;;;;;;4.77;1.07;;;2.30;99.90;;;;;;5015605;28;20569;-80
2021/03/19 05:15:05;;;;;;;1.93;0.50;;;2.40;99.90;;;;;;5022190;28;20185;-81
2021/03/19 05:17:31;;;;;;;0.10;0.10;;;2.40;99.90;;;;;;5013071;28;20227;-84
2021/03/19 05:19:57;;;;;;;2.07;0.97;;;2.30;99.90;;;;;;5033778;28;20218;-81
2021/03/19 05:22:24;;;;;;;0.60;0.60;;;2.30;99.90;;;;;;5033338;28;20181;-81
2021/03/19 05:24:50;;;;;;;1.20;0.77;;;2.30;99.90;;;;;;5014402;28;20214;-81
2021/03/19 05:27:16;;;;;;;0.27;0.27;;;2.30;99.90;;;;;;5025970;28;20182;-80
2021/03/19 05:29:42;;;;;;;0.37;0.37;;;2.30;99.90;;;;;;5021545;28;20203;-81
2021/03/19 05:32:07;;;;;;;0.37;0.37;;;2.20;99.90;;;;;;5026983;28;20273;-81
2021/03/19 05:34:33;;;;;;;0.90;0.50;;;2.20;99.90;;;;;;5032404;28;20186;-81
2021/03/19 05:36:59;;;;;;;0.47;0.47;;;2.10;99.90;;;;;;5021000;28;20749;-81
2021/03/19 05:39:25;;;;;;;0.27;0.23;;;2.10;99.90;;;;;;5026153;28;20217;-83
2021/03/19 05:41:50;;;;;;;3.30;0.73;;;2.10;99.90;;;;;;5029860;28;20646;-83
2021/03/19 05:44:18;;;;;;;0.40;0.40;;;2.10;99.90;;;;;;5013927;28;20179;-82
2021/03/19 05:46:50;;;;;;;0.40;0.37;;;2.10;99.90;;;;;;5029829;28;20190;-83
2021/03/19 05:49:21;;;;;;;1.27;0.70;;;2.10;99.90;;;;;;5024160;28;20205;-84
2021/03/19 05:51:49;;;;;;;0.53;0.40;;;2.20;99.90;;;;;;5030805;28;20189;-83
2021/03/19 05:54:18;;;;;;;1.27;1.10;;;2.20;99.90;;;;;;5015179;28;20581;-84
2021/03/19 05:56:45;;;;;;;0.10;0.10;;;2.30;99.90;;;;;;5016162;28;20217;-83
2021/03/19 05:59:11;;;;;;;0.30;0.30;;;2.40;99.90;;;;;;5023923;28;20216;-84
2021/03/19 06:01:38;;;;;;;0.33;0.33;;;2.60;99.90;;;;;;5028587;28;20184;-83
2021/03/19 06:04:04;;;;;;;0.30;0.30;;;2.70;99.90;;;;;;5014121;28;20249;-84
2021/03/19 06:06:49;;;;;;;0.20;0.20;;;2.60;99.90;;;;;;5017025;28;20183;-84
2021/03/19 06:09:41;;;;;;;0.63;0.63;;;2.60;99.90;;;;;;5023761;28;20212;-85
2021/03/19 06:12:09;;;;;;;0.83;0.83;;;2.40;99.90;;;;;;5003580;28;20244;-84
2021/03/19 06:14:54;;;;;;;0.27;0.27;;;2.40;99.90;;;;;;5024245;28;20187;-83
2021/03/19 06:17:34;;;;;;;0.13;0.13;;;2.40;99.90;;;;;;5018286;28;20276;-83
2021/03/19 06:20:03;;;;;;;0.30;0.30;;;2.40;99.90;;;;;;5011288;28;20207;-83
2021/03/19 06:22:37;;;;;;;0.43;0.43;;;2.50;99.90;;;;;;5019839;28;20183;-84
2021/03/19 06:25:30;;;;;;;1.17;1.07;;;2.50;99.90;;;;;;5012392;28;20186;-82
2021/03/19 06:27:59;;;;;;;0.17;0.17;;;2.50;99.90;;;;;;5016006;28;20207;-84
2021/03/19 06:30:37;;;;;;;0.77;0.77;;;2.40;99.90;;;;;;5028674;28;20200;-84
2021/03/19 06:33:06;;;;;;;0.57;0.57;;;2.40;99.90;;;;;;5024838;28;20179;-83
2021/03/19 06:35:36;;;;;;;0.83;0.53;;;2.50;99.90;;;;;;5020604;28;20543;-84
2021/03/19 06:38:30;;;;;;;0.27;0.23;;;2.40;99.90;;;;;;5012600;28;20210;-84
2021/03/19 06:40:59;;;;;;;0.97;0.90;;;2.40;99.90;;;;;;5015211;28;20183;-84
2021/03/19 06:43:28;;;;;;;0.47;0.47;;;2.50;99.90;;;;;;5022527;28;20190;-84
2021/03/19 06:46:18;;;;;;;1.80;0.73;;;2.60;99.90;;;;;;5013249;28;20183;-82
2021/03/19 06:48:43;;;;;;;0.10;0.10;;;2.70;99.90;;;;;;5016932;28;20281;-83
2021/03/19 06:51:25;;;;;;;0.80;0.80;;;2.90;99.90;;;;;;5015224;28;20273;-84
2021/03/19 06:54:04;;;;;;;0.00;0.00;;;2.90;99.90;;;;;;5010480;28;20270;-84
2021/03/19 06:56:30;;;;;;;0.63;0.63;;;2.90;99.90;;;;;;5015279;28;20228;-83
2021/03/19 06:58:56;;;;;;;0.20;0.20;;;2.90;99.90;;;;;;5016510;28;20225;-83
2021/03/19 07:01:48;;;;;;;2.47;0.70;;;3.00;99.90;;;;;;5013500;28;20225;-85
2021/03/19 07:04:41;;;;;;;0.97;0.83;;;3.10;99.90;;;;;;5019031;28;20253;-84
2021/03/19 07:07:25;;;;;;;1.43;1.33;;;3.10;99.90;;;;;;5010945;28;20196;-83
2021/03/19 07:10:18;;;;;;;1.27;0.77;;;3.10;99.90;;;;;;5011219;28;20215;-84
2021/03/19 07:13:13;;;;;;;1.80;0.57;;;3.30;99.90;;;;;;5008350;28;20198;-82
2021/03/19 07:15:56;;;;;;;0.40;0.40;;;3.30;99.90;;;;;;5008693;28;20195;-83
2021/03/19 07:18:59;;;;;;;1.67;1.03;;;3.30;99.90;;;;;;5009629;28;20210;-82
2021/03/19 07:21:46;;;;;;;1.80;0.60;;;3.10;99.90;;;;;;5016868;28;20174;-83
2021/03/19 07:24:14;;;;;;;0.20;0.20;;;3.10;99.90;;;;;;5011289;28;20230;-83
2021/03/19 07:26:48;;;;;;;0.77;0.60;;;3.40;99.90;;;;;;5011557;28;20757;-82
2021/03/19 07:29:32;;;;;;;1.53;1.03;;;3.60;99.90;;;;;;5014452;28;20211;-83
2021/03/19 07:32:10;;;;;;;0.40;0.40;;;3.50;99.90;;;;;;5014815;28;20194;-83
2021/03/19 07:34:56;;;;;;;0.60;0.60;;;3.50;99.90;;;;;;4999748;28;20192;-82
2021/03/19 07:37:40;;;;;;;0.57;0.57;;;3.60;99.90;;;;;;5027937;28;20710;-83
2021/03/19 07:40:24;;;;;;;0.30;0.30;;;3.70;99.90;;;;;;5003716;28;20222;-84
2021/03/19 07:43:07;;;;;;;1.37;0.83;;;3.80;99.90;;;;;;5011085;28;20267;-83
2021/03/19 07:45:49;;;;;;;0.53;0.53;;;3.80;99.90;;;;;;5020168;28;20236;-83
2021/03/19 07:48:17;;;;;;;0.63;0.50;;;4.00;99.90;;;;;;5012471;28;20204;-85
2021/03/19 07:51:15;;;;;;;0.37;0.37;;;3.90;99.90;;;;;;5023501;28;20827;-82
2021/03/19 07:54:11;;;;;;;0.97;0.77;;;4.00;99.90;;;;;;5015825;28;20191;-83
2021/03/19 07:57:24;;;;;;;1.30;0.90;;;4.00;99.90;;;;;;4999187;28;20199;-84
2021/03/19 08:00:08;;;;;;;2.40;1.20;;;3.90;99.90;;;;;;4969008;28;20244;-83
2021/03/19 08:03:10;;;;;;;2.27;1.20;;;4.10;99.90;;;;;;4953718;28;20220;-83
2021/03/19 08:05:46;;;;;;;0.50;0.50;;;3.90;99.90;;;;;;5002723;28;20245;-83
2021/03/19 08:08:37;;;;;;;0.47;0.47;;;4.10;99.90;;;;;;5023461;28;20208;-83
2021/03/19 08:11:14;;;;;;;1.57;0.70;;;4.20;99.90;;;;;;5016501;28;20184;-83
2021/03/19 08:14:04;;;;;;;0.40;0.30;;;4.40;99.90;;;;;;5023305;28;20186;-85
2021/03/19 08:16:49;;;;;;;0.33;0.33;;;4.50;99.90;;;;;;5023343;28;20285;-85
2021/03/19 08:19:25;;;;;;;0.50;0.50;;;4.60;99.90;;;;;;5005228;28;20239;-85
2021/03/19 08:22:09;;;;;;;1.53;0.47;;;4.50;99.90;;;;;;5002820;28;20323;-84
2021/03/19 08:25:16;;;;;;;0.67;0.67;;;4.80;99.90;;;;;;5022031;28;20184;-83
2021/03/19 08:27:52;;;;;;;1.33;0.80;;;5.00;99.90;;;;;;5008992;28;20616;-84
2021/03/19 08:30:30;;;;;;;0.50;0.50;;;5.30;99.90;;;;;;5020833;28;20530;-83
2021/03/19 08:33:33;;;;;;;0.20;0.20;;;4.90;99.90;;;;;;5008313;28;20325;-84
2021/03/19 08:36:12;;;;;;;0.13;0.13;;;4.90;99.90;;;;;;5019502;28;20190;-84
2021/03/19 08:38:49;;;;;;;0.73;0.73;;;4.90;99.90;;;;;;5016578;28;20212;-84
2021/03/19 08:41:20;;;;;;;1.80;1.10;;;4.50;99.90;;;;;;5026740;28;20180;-84
2021/03/19 08:44:00;;;;;;;0.53;0.53;;;4.40;99.90;;;;;;5019467;28;20179;-84
2021/03/19 08:46:35;;;;;;;1.73;0.80;;;4.50;99.90;;;;;;5037259;28;20270;-84
2021/03/19 08:49:06;;;;;;;0.40;0.40;;;4.80;99.90;;;;;;5029023;28;20246;-84
2021/03/19 08:51:31;;;;;;;4.47;0.77;;;5.00;99.90;;;;;;5030118;28;20180;-85
2021/03/19 08:54:12;;;;;;;0.80;0.57;;;5.20;99.90;;;;;;5024239;28;20194;-83
2021/03/19 08:56:40;;;;;;;0.67;0.60;;;5.20;99.90;;;;;;5033860;28;21502;-84
2021/03/19 08:59:06;;;;;;;0.80;0.80;;;5.40;99.90;;;;;;5020611;28;20216;-84
2021/03/19 09:01:49;;;;;;;0.70;0.70;;;5.40;99.90;;;;;;5031312;28;20663;-83
2021/03/19 09:04:16;;;;;;;0.80;0.80;;;5.30;99.90;;;;;;5023047;28;20188;-84
2021/03/19 09:07:20;;;;;;;0.87;0.87;;;5.10;99.90;;;;;;5033695;28;20189;-84
2021/03/19 09:09:46;;;;;;;1.83;0.40;;;5.10;99.90;;;;;;5019317;28;20596;-84
2021/03/19 09:12:17;;;;;;;1.03;0.20;;;4.80;99.90;;;;;;5014667;28;20189;-84
2021/03/19 09:14:46;;;;;;;1.17;0.33;;;5.10;99.90;;;;;;5012723;28;20654;-84
2021/03/19 09:17:43;;;;;;;0.73;0.73;;;4.80;99.90;;;;;;5010095;28;20189;-86
2021/03/19 09:20:30;;;;;;;0.43;0.43;;;4.70;99.90;;;;;;5033203;28;20236;-84
2021/03/19 09:23:09;;;;;;;0.40;0.40;;;4.50;99.90;;;;;;5015923;28;20178;-85
2021/03/19 09:26:16;;;;;;;0.70;0.50;;;4.70;99.90;;;;;;5012417;28;20177;-83
2021/03/19 09:28:48;;;;;;;2.23;0.90;;;4.90;99.90;;;;;;5031988;28;20208;-83
2021/03/19 09:31:34;;;;;;;1.47;0.60;;;5.40;99.90;;;;;;5028752;28;20207;-82
2021/03/19 09:34:34;;;;;;;0.40;0.40;;;5.10;99.90;;;;;;5012614;28;20184;-84
2021/03/19 09:37:07;;;;;;;2.30;0.53;;;4.90;99.90;;;;;;4990457;28;20195;-83
2021/03/19 09:39:48;;;;;;;0.67;0.67;;;4.80;99.90;;;;;;5021531;28;20354;-83
2021/03/19 09:42:20;;;;;;;1.50;0.40;;;5.00;99.90;;;;;;5030149;28;20209;-83
2021/03/19 09:44:58;;;;;;;1.10;0.83;;;5.20;99.90;;;;;;5017767;28;20172;-82
2021/03/19 09:47:38;;;;;;;0.60;0.60;;;5.40;99.90;;;;;;5013306;28;20219;-83
2021/03/19 09:50:24;;;;;;;0.67;0.33;;;4.80;99.90;;;;;;5014334;28;20221;-83
2021/03/19 09:53:32;;;;;;;0.30;0.30;;;4.40;99.90;;;;;;5009258;28;20183;-82
2021/03/19 09:56:01;;;;;;;0.37;0.37;;;4.40;99.90;;;;;;5005118;28;20235;-83
2021/03/19 09:58:40;;;;;;;1.70;0.97;;;4.60;99.90;;;;;;5011691;28;20230;-83
2021/03/19 10:01:14;;;;;;;0.67;0.67;;;5.20;99.90;;;;;;5013255;28;20227;-84
2021/03/19 10:03:51;;;;;;;0.10;0.10;;;5.30;99.90;;;;;;5010963;28;20198;-83
2021/03/19 10:06:25;;;;;;;0.57;0.53;;;5.10;99.90;;;;;;5015191;28;20177;-83
2021/03/19 10:09:02;;;;;;;0.50;0.50;;;5.10;99.90;;;;;;5010831;28;20205;-84
2021/03/19 10:11:27;;;;;;;0.33;0.33;;;5.30;99.90;;;;;;5017666;28;20192;-83
2021/03/19 10:14:10;;;;;;;0.67;0.57;;;5.00;99.90;;;;;;5013272;28;20554;-83
2021/03/19 10:16:36;;;;;;;0.40;0.40;;;4.80;99.90;;;;;;5022776;28;20197;-84
2021/03/19 10:19:09;;;;;;;0.67;0.67;;;4.60;99.90;;;;;;5019906;28;20720;-84
2021/03/19 10:21:46;;;;;;;0.30;0.30;;;4.80;99.90;;;;;;5015623;28;20236;-83
2021/03/19 10:24:12;;;;;;;0.50;0.50;;;5.00;99.90;;;;;;5019817;28;20265;-82
2021/03/19 10:26:48;;;;;;;0.13;0.13;;;5.20;99.90;;;;;;5013213;28;20662;-83
2021/03/19 10:29:21;;;;;;;0.50;0.30;;;5.60;99.90;;;;;;5019097;28;20289;-83
2021/03/19 10:32:06;;;;;;;0.30;0.30;;;6.00;99.90;;;;;;5014950;28;20207;-84
2021/03/19 10:34:44;;;;;;;0.17;0.17;;;6.00;99.90;;;;;;5014161;28;20217;-84
2021/03/19 10:37:37;;;;;;;0.33;0.30;;;5.90;99.90;;;;;;5017723;28;20662;-84
2021/03/19 10:40:03;;;;;;;0.40;0.40;;;6.20;99.90;;;;;;5030073;28;20725;-84
2021/03/19 10:42:44;;;;;;;0.53;0.53;;;6.50;99.90;;;;;;5021631;28;20183;-85
2021/03/19 10:45:39;;;;;;;0.40;0.40;;;6.90;99.90;;;;;;5020340;28;20264;-83
2021/03/19 10:48:22;;;;;;;4.23;1.30;;;6.40;99.90;;;;;;5024920;28;20200;-84
2021/03/19 10:51:04;;;;;;;1.27;0.37;;;6.50;99.90;;;;;;5011562;28;20236;-84
2021/03/19 10:53:39;;;;;;;0.37;0.37;;;6.20;99.90;;;;;;5020689;28;20188;-85
2021/03/19 10:56:05;;;;;;;0.93;0.60;;;6.00;99.90;;;;;;5014069;28;20180;-84
2021/03/19 10:58:36;;;;;;;0.30;0.23;;;5.60;99.90;;;;;;5018402;28;20772;-85
2021/03/19 11:01:34;;;;;;;0.57;0.57;;;5.30;99.90;;;;;;5007503;28;20183;-84
2021/03/19 11:04:03;;;;;;;0.37;0.37;;;5.20;99.90;;;;;;5019263;28;20196;-85
2021/03/19 11:06:40;;;;;;;2.27;0.37;;;4.90;99.90;;;;;;5026445;28;20183;-82
2021/03/19 11:09:09;;;;;;;0.17;0.17;;;4.70;99.90;;;;;;5007233;28;20212;-85
2021/03/19 11:11:35;;;;;;;0.33;0.33;;;4.80;99.90;;;;;;5015129;28;20189;-83
2021/03/19 11:14:06;;;;;;;0.30;0.30;;;4.60;99.90;;;;;;5011994;28;20189;-83
2021/03/19 11:16:39;;;;;;;0.70;0.43;;;4.80;99.90;;;;;;5020994;28;20200;-85
2021/03/19 11:19:09;;;;;;;0.53;0.53;;;5.40;99.90;;;;;;5007867;28;20208;-83
2021/03/19 11:21:36;;;;;;;0.30;0.30;;;5.60;99.90;;;;;;5030707;28;20778;-82
2021/03/19 11:24:24;;;;;;;0.57;0.57;;;5.70;99.90;;;;;;5025728;28;20194;-83
2021/03/19 11:26:59;;;;;;;0.40;0.20;;;5.80;99.90;;;;;;5007736;28;20181;-83
2021/03/19 11:29:29;;;;;;;0.10;0.10;;;5.70;99.90;;;;;;5008049;28;20208;-83
2021/03/19 11:32:26;;;;;;;0.03;0.03;;;6.30;99.90;;;;;;5015160;28;20205;-83
2021/03/19 11:34:55;;;;;;;0.17;0.17;;;6.80;99.90;;;;;;5012837;28;20665;-85
2021/03/19 11:37:23;;;;;;;0.40;0.40;;;7.00;99.90;;;;;;5021975;28;20206;-83
2021/03/19 11:39:56;;;;;;;1.97;0.57;;;7.50;99.90;;;;;;5017078;28;20206;-84
2021/03/19 11:42:28;;;;;;;1.43;0.23;;;7.40;99.90;;;;;;5023984;28;20654;-83
2021/03/19 11:45:02;;;;;;;0.20;0.20;;;7.30;99.90;;;;;;5013524;28;20174;-84
2021/03/19 11:47:31;;;;;;;1.93;0.50;;;7.50;99.90;;;;;;5015878;28;20221;-85
2021/03/19 11:50:22;;;;;;;1.40;0.53;;;7.40;99.90;;;;;;5016601;28;20237;-84
2021/03/19 11:52:52;;;;;;;0.63;0.30;;;6.20;99.90;;;;;;5010944;28;20195;-84
2021/03/19 11:55:24;;;;;;;1.27;0.30;;;5.90;99.90;;;;;;5015418;28;20186;-83
2021/03/19 11:57:51;;;;;;;1.60;0.30;;;5.80;99.90;;;;;;5012133;28;20193;-83
2021/03/19 12:00:19;;;;;;;0.40;0.40;;;5.70;99.90;;;;;;5006893;28;20212;-83
2021/03/19 12:02:48;;;;;;;0.07;0.07;;;5.70;99.90;;;;;;5013476;28;20189;-84
2021/03/19 12:05:14;;;;;;;0.10;0.10;;;5.60;99.90;;;;;;5011356;28;20659;-85
2021/03/19 12:07:40;;;;;;;0.80;0.57;;;5.30;99.90;;;;;;5010861;28;20270;-84
2021/03/19 12:10:08;;;;;;;0.60;0.60;;;5.30;99.90;;;;;;5023015;28;20201;-84
2021/03/19 12:12:34;;;;;;;0.17;0.17;;;5.30;99.90;;;;;;5014080;28;20565;-83
2021/03/19 12:15:00;;;;;;;0.90;0.50;;;5.30;99.90;;;;;;5016861;28;20199;-83
2021/03/19 12:17:26;;;;;;;0.30;0.30;;;5.40;99.90;;;;;;5023923;28;20190;-85
2021/03/19 12:19:52;;;;;;;0.40;0.40;;;5.40;99.90;;;;;;5031937;28;20219;-83
2021/03/19 12:22:19;;;;;;;0.40;0.40;;;5.10;99.90;;;;;;5022189;28;20597;-83
2021/03/19 12:24:45;;;;;;;0.33;0.33;;;5.10;99.90;;;;;;5011378;28;20247;-83
2021/03/19 12:27:13;;;;;;;0.87;0.80;;;5.20;99.90;;;;;;5019407;28;20645;-81
2021/03/19 12:29:38;;;;;;;0.50;0.40;;;5.10;99.90;;;;;;5012641;28;20233;-84
2021/03/19 12:32:04;;;;;;;0.77;0.57;;;5.10;99.90;;;;;;5021824;28;20194;-84
2021/03/19 12:34:31;;;;;;;0.50;0.50;;;5.20;99.90;;;;;;5026899;28;20289;-83
2021/03/19 12:36:56;;;;;;;0.10;0.10;;;5.20;99.90;;;;;;5023373;28;20190;-86
2021/03/19 12:39:22;;;;;;;3.97;0.53;;;5.50;99.90;;;;;;5029122;28;20303;-83
2021/03/19 12:41:49;;;;;;;0.17;0.17;;;5.80;99.90;;;;;;5016720;28;20190;-84
2021/03/19 12:44:15;;;;;;;0.27;0.27;;;6.30;99.90;;;;;;5022660;28;20185;-83
2021/03/19 12:46:41;;;;;;;0.23;0.23;;;6.40;99.90;;;;;;5026159;28;20216;-83
2021/03/19 12:49:07;;;;;;;0.30;0.23;;;6.50;99.90;;;;;;5032638;28;20202;-83
2021/03/19 12:51:38;;;;;;;3.50;0.33;;;6.10;99.90;;;;;;5004071;28;20187;-84
2021/03/19 12:54:05;;;;;;;0.47;0.47;;;5.70;99.90;;;;;;5024939;28;20184;-84
2021/03/19 12:56:30;;;;;;;0.73;0.47;;;5.40;99.90;;;;;;5016502;28;20327;-82
2021/03/19 12:58:56;;;;;;;0.40;0.40;;;5.30;99.90;;;;;;5021105;28;20691;-83
2021/03/19 13:01:22;;;;;;;0.27;0.27;;;5.20;99.90;;;;;;5022308;28;20214;-83
2021/03/19 13:03:49;;;;;;;0.37;0.37;;;5.30;99.90;;;;;;5023776;28;20266;-85
2021/03/19 13:06:20;;;;;;;1.07;0.63;;;5.30;99.90;;;;;;5013823;28;20180;-84
2021/03/19 13:08:46;;;;;;;0.20;0.20;;;5.40;99.90;;;;;;5017051;28;20756;-84
2021/03/19 13:11:13;;;;;;;0.20;0.20;;;5.80;99.90;;;;;;5017181;28;20673;-84
2021/03/19 13:13:40;;;;;;;0.20;0.20;;;6.20;99.90;;;;;;5011631;28;20203;-83
2021/03/19 13:16:06;;;;;;;0.20;0.20;;;6.60;99.90;;;;;;5006055;28;20712;-84
2021/03/19 13:18:32;;;;;;;0.50;0.40;;;6.80;99.90;;;;;;5019883;28;20210;-84
2021/03/19 13:20:57;;;;;;;0.40;0.40;;;6.60;99.90;;;;;;5021807;28;20190;-85
2021/03/19 13:23:23;;;;;;;0.17;0.17;;;6.50;99.90;;;;;;5016973;28;20207;-84
2021/03/19 13:25:49;;;;;;;0.47;0.47;;;6.30;99.90;;;;;;5009313;28;20267;-83
2021/03/19 13:28:17;;;;;;;0.20;0.20;;;5.90;99.90;;;;;;5023332;28;20699;-83
2021/03/19 13:30:46;;;;;;;0.83;0.27;;;5.90;99.90;;;;;;5018801;28;20617;-83
2021/03/19 13:33:13;;;;;;;0.83;0.67;;;6.00;99.90;;;;;;5016644;28;20226;-83